sensor_id;sensor_type;location;lat;lon;timestamp;P1;durP1;ratioP1;P2;durP2;ratioP2
22567;SDS011;11450;50.818;4.382;2022-08-19T00:02:03;19.85;;;17.90;;
22567;SDS011;11450;50.818;4.382;2022-08-19T00:07:23;22.90;;;20.63;;
22567;SDS011;11450;50.818;4.382;2022-08-19T00:09:48;22.38;;;20.17;;
22567;SDS011;11450;50.818;4.382;2022-08-19T00:12:14;24.92;;;22.48;;
22567;SDS011;11450;50.818;4.382;2022-08-19T00:14:40;26.85;;;24.13;;
22567;SDS011;11450;50.818;4.382;2022-08-19T00:17:06;29.33;;;26.33;;
22567;SDS011;11450;50.818;4.382;2022-08-19T00:19:33;24.42;;;22.02;;
22567;SDS011;11450;50.818;4.382;2022-08-19T00:22:01;29.05;;;26.05;;
22567;SDS011;11450;50.818;4.382;2022-08-19T00:24:27;31.65;;;28.45;;
22567;SDS011;11450;50.818;4.382;2022-08-19T00:26:54;32.28;;;28.77;;
22567;SDS011;11450;50.818;4.382;2022-08-19T00:29:21;32.08;;;28.35;;
22567;SDS011;11450;50.818;4.382;2022-08-19T00:31:49;32.80;;;28.67;;
22567;SDS011;11450;50.818;4.382;2022-08-19T00:34:20;39.70;;;33.28;;
22567;SDS011;11450;50.818;4.382;2022-08-19T00:36:46;43.78;;;34.72;;
22567;SDS011;11450;50.818;4.382;2022-08-19T00:39:13;42.45;;;34.88;;
22567;SDS011;11450;50.818;4.382;2022-08-19T00:41:41;40.08;;;34.45;;
22567;SDS011;11450;50.818;4.382;2022-08-19T00:44:14;48.05;;;37.65;;
22567;SDS011;11450;50.818;4.382;2022-08-19T00:46:45;44.00;;;36.67;;
22567;SDS011;11450;50.818;4.382;2022-08-19T00:51:41;50.33;;;40.35;;
22567;SDS011;11450;50.818;4.382;2022-08-19T00:54:09;48.83;;;40.28;;
22567;SDS011;11450;50.818;4.382;2022-08-19T00:56:35;46.67;;;39.95;;
22567;SDS011;11450;50.818;4.382;2022-08-19T00:59:02;48.30;;;40.53;;
22567;SDS011;11450;50.818;4.382;2022-08-19T01:01:34;45.75;;;39.03;;
22567;SDS011;11450;50.818;4.382;2022-08-19T01:04:04;47.28;;;38.67;;
22567;SDS011;11450;50.818;4.382;2022-08-19T01:06:30;43.88;;;38.58;;
22567;SDS011;11450;50.818;4.382;2022-08-19T01:08:58;44.40;;;37.35;;
22567;SDS011;11450;50.818;4.382;2022-08-19T01:11:24;44.20;;;39.35;;
22567;SDS011;11450;50.818;4.382;2022-08-19T01:13:51;44.55;;;38.55;;
22567;SDS011;11450;50.818;4.382;2022-08-19T01:16:18;40.97;;;35.72;;
22567;SDS011;11450;50.818;4.382;2022-08-19T01:18:46;43.10;;;36.05;;
22567;SDS011;11450;50.818;4.382;2022-08-19T01:21:15;39.75;;;34.70;;
22567;SDS011;11450;50.818;4.382;2022-08-19T01:23:47;37.78;;;33.72;;
22567;SDS011;11450;50.818;4.382;2022-08-19T01:26:20;37.05;;;33.25;;
22567;SDS011;11450;50.818;4.382;2022-08-19T01:28:48;35.33;;;31.50;;
22567;SDS011;11450;50.818;4.382;2022-08-19T01:31:22;34.13;;;30.08;;
22567;SDS011;11450;50.818;4.382;2022-08-19T01:33:50;33.90;;;30.27;;
22567;SDS011;11450;50.818;4.382;2022-08-19T01:39:15;33.67;;;28.63;;
22567;SDS011;11450;50.818;4.382;2022-08-19T01:41:44;33.13;;;28.63;;
22567;SDS011;11450;50.818;4.382;2022-08-19T01:44:10;31.52;;;28.23;;
22567;SDS011;11450;50.818;4.382;2022-08-19T01:46:36;30.25;;;27.23;;
22567;SDS011;11450;50.818;4.382;2022-08-19T01:49:03;28.15;;;25.23;;
22567;SDS011;11450;50.818;4.382;2022-08-19T01:51:29;27.45;;;24.65;;
22567;SDS011;11450;50.818;4.382;2022-08-19T01:53:55;26.02;;;23.30;;
22567;SDS011;11450;50.818;4.382;2022-08-19T01:56:21;26.75;;;24.05;;
22567;SDS011;11450;50.818;4.382;2022-08-19T01:58:53;28.20;;;25.35;;
22567;SDS011;11450;50.818;4.382;2022-08-19T02:01:23;24.95;;;22.55;;
22567;SDS011;11450;50.818;4.382;2022-08-19T02:03:49;25.35;;;22.75;;
22567;SDS011;11450;50.818;4.382;2022-08-19T02:06:18;23.50;;;21.20;;
22567;SDS011;11450;50.818;4.382;2022-08-19T02:08:44;21.73;;;19.55;;
22567;SDS011;11450;50.818;4.382;2022-08-19T02:11:17;21.38;;;19.27;;
22567;SDS011;11450;50.818;4.382;2022-08-19T02:13:47;22.55;;;20.33;;
22567;SDS011;11450;50.818;4.382;2022-08-19T02:16:14;23.67;;;21.10;;
22567;SDS011;11450;50.818;4.382;2022-08-19T02:18:41;24.08;;;21.63;;
22567;SDS011;11450;50.818;4.382;2022-08-19T02:24:29;25.17;;;21.98;;
22567;SDS011;11450;50.818;4.382;2022-08-19T02:26:55;26.23;;;23.55;;
22567;SDS011;11450;50.818;4.382;2022-08-19T02:29:20;27.67;;;24.75;;
22567;SDS011;11450;50.818;4.382;2022-08-19T02:31:46;26.13;;;23.33;;
22567;SDS011;11450;50.818;4.382;2022-08-19T02:34:12;24.92;;;22.48;;
22567;SDS011;11450;50.818;4.382;2022-08-19T02:36:38;26.08;;;22.38;;
22567;SDS011;11450;50.818;4.382;2022-08-19T02:39:04;24.63;;;21.95;;
22567;SDS011;11450;50.818;4.382;2022-08-19T02:41:30;23.55;;;21.17;;
22567;SDS011;11450;50.818;4.382;2022-08-19T02:43:58;23.42;;;21.02;;
22567;SDS011;11450;50.818;4.382;2022-08-19T02:46:26;24.80;;;22.08;;
22567;SDS011;11450;50.818;4.382;2022-08-19T02:48:54;22.50;;;20.27;;
22567;SDS011;11450;50.818;4.382;2022-08-19T02:51:25;23.33;;;20.95;;
22567;SDS011;11450;50.818;4.382;2022-08-19T02:53:53;24.60;;;21.52;;
22567;SDS011;11450;50.818;4.382;2022-08-19T02:56:19;25.08;;;22.58;;
22567;SDS011;11450;50.818;4.382;2022-08-19T02:58:46;24.25;;;21.65;;
22567;SDS011;11450;50.818;4.382;2022-08-19T03:01:34;25.42;;;22.58;;
22567;SDS011;11450;50.818;4.382;2022-08-19T03:04:00;25.63;;;21.65;;
22567;SDS011;11450;50.818;4.382;2022-08-19T03:06:28;22.27;;;19.90;;
22567;SDS011;11450;50.818;4.382;2022-08-19T03:08:55;23.05;;;20.50;;
22567;SDS011;11450;50.818;4.382;2022-08-19T03:11:24;23.48;;;19.80;;
22567;SDS011;11450;50.818;4.382;2022-08-19T03:13:54;22.90;;;20.25;;
22567;SDS011;11450;50.818;4.382;2022-08-19T03:16:22;24.00;;;20.58;;
22567;SDS011;11450;50.818;4.382;2022-08-19T03:18:49;23.50;;;21.05;;
22567;SDS011;11450;50.818;4.382;2022-08-19T03:21:17;22.92;;;20.30;;
22567;SDS011;11450;50.818;4.382;2022-08-19T03:23:44;22.80;;;20.38;;
22567;SDS011;11450;50.818;4.382;2022-08-19T03:26:10;23.30;;;20.92;;
22567;SDS011;11450;50.818;4.382;2022-08-19T03:28:35;24.10;;;19.90;;
22567;SDS011;11450;50.818;4.382;2022-08-19T03:31:10;22.48;;;19.98;;
22567;SDS011;11450;50.818;4.382;2022-08-19T03:33:38;22.55;;;20.20;;
22567;SDS011;11450;50.818;4.382;2022-08-19T03:36:06;22.23;;;19.30;;
22567;SDS011;11450;50.818;4.382;2022-08-19T03:38:38;22.67;;;19.17;;
22567;SDS011;11450;50.818;4.382;2022-08-19T03:41:08;20.92;;;17.35;;
22567;SDS011;11450;50.818;4.382;2022-08-19T03:43:37;19.75;;;17.60;;
22567;SDS011;11450;50.818;4.382;2022-08-19T03:46:05;19.23;;;17.30;;
22567;SDS011;11450;50.818;4.382;2022-08-19T03:48:34;22.08;;;19.73;;
22567;SDS011;11450;50.818;4.382;2022-08-19T03:51:02;22.30;;;19.80;;
22567;SDS011;11450;50.818;4.382;2022-08-19T03:53:29;23.83;;;19.65;;
22567;SDS011;11450;50.818;4.382;2022-08-19T03:55:55;22.63;;;20.27;;
22567;SDS011;11450;50.818;4.382;2022-08-19T03:58:22;21.13;;;18.92;;
22567;SDS011;11450;50.818;4.382;2022-08-19T04:00:48;21.27;;;18.60;;
22567;SDS011;11450;50.818;4.382;2022-08-19T04:03:14;24.13;;;20.33;;
22567;SDS011;11450;50.818;4.382;2022-08-19T04:05:40;21.88;;;17.67;;
22567;SDS011;11450;50.818;4.382;2022-08-19T04:08:06;23.83;;;19.48;;
22567;SDS011;11450;50.818;4.382;2022-08-19T04:10:35;24.15;;;19.67;;
22567;SDS011;11450;50.818;4.382;2022-08-19T04:13:02;24.38;;;19.17;;
22567;SDS011;11450;50.818;4.382;2022-08-19T04:15:30;24.83;;;19.95;;
22567;SDS011;11450;50.818;4.382;2022-08-19T04:18:00;23.88;;;17.38;;
22567;SDS011;11450;50.818;4.382;2022-08-19T04:20:26;23.98;;;19.10;;
22567;SDS011;11450;50.818;4.382;2022-08-19T04:22:52;20.60;;;18.40;;
22567;SDS011;11450;50.818;4.382;2022-08-19T04:25:17;23.85;;;19.40;;
22567;SDS011;11450;50.818;4.382;2022-08-19T04:27:43;23.20;;;18.70;;
22567;SDS011;11450;50.818;4.382;2022-08-19T04:30:11;21.65;;;19.02;;
22567;SDS011;11450;50.818;4.382;2022-08-19T04:32:38;24.90;;;18.58;;
22567;SDS011;11450;50.818;4.382;2022-08-19T04:35:04;21.55;;;18.27;;
22567;SDS011;11450;50.818;4.382;2022-08-19T04:37:30;22.65;;;17.30;;
22567;SDS011;11450;50.818;4.382;2022-08-19T04:39:58;22.25;;;16.23;;
22567;SDS011;11450;50.818;4.382;2022-08-19T04:42:42;21.63;;;16.30;;
22567;SDS011;11450;50.818;4.382;2022-08-19T04:45:09;20.13;;;16.83;;
22567;SDS011;11450;50.818;4.382;2022-08-19T04:47:38;24.27;;;16.88;;
22567;SDS011;11450;50.818;4.382;2022-08-19T04:50:06;19.13;;;16.05;;
22567;SDS011;11450;50.818;4.382;2022-08-19T04:52:32;20.52;;;15.65;;
22567;SDS011;11450;50.818;4.382;2022-08-19T04:54:58;18.67;;;15.88;;
22567;SDS011;11450;50.818;4.382;2022-08-19T04:57:25;23.17;;;16.27;;
22567;SDS011;11450;50.818;4.382;2022-08-19T04:59:54;22.80;;;17.33;;
22567;SDS011;11450;50.818;4.382;2022-08-19T05:02:22;26.20;;;17.50;;
22567;SDS011;11450;50.818;4.382;2022-08-19T05:04:51;22.63;;;16.27;;
22567;SDS011;11450;50.818;4.382;2022-08-19T05:07:22;20.67;;;16.98;;
22567;SDS011;11450;50.818;4.382;2022-08-19T05:09:47;23.42;;;18.55;;
22567;SDS011;11450;50.818;4.382;2022-08-19T05:12:13;22.17;;;17.63;;
22567;SDS011;11450;50.818;4.382;2022-08-19T05:14:39;23.88;;;19.13;;
22567;SDS011;11450;50.818;4.382;2022-08-19T05:17:04;22.75;;;18.38;;
22567;SDS011;11450;50.818;4.382;2022-08-19T05:19:30;25.80;;;19.92;;
22567;SDS011;11450;50.818;4.382;2022-08-19T05:22:14;26.02;;;19.40;;
22567;SDS011;11450;50.818;4.382;2022-08-19T05:25:00;24.30;;;19.37;;
22567;SDS011;11450;50.818;4.382;2022-08-19T05:27:31;22.40;;;19.35;;
22567;SDS011;11450;50.818;4.382;2022-08-19T05:29:57;22.60;;;19.77;;
22567;SDS011;11450;50.818;4.382;2022-08-19T05:32:23;24.58;;;19.80;;
22567;SDS011;11450;50.818;4.382;2022-08-19T05:34:48;24.85;;;19.00;;
22567;SDS011;11450;50.818;4.382;2022-08-19T05:37:14;24.77;;;18.20;;
22567;SDS011;11450;50.818;4.382;2022-08-19T05:39:40;23.25;;;17.52;;
22567;SDS011;11450;50.818;4.382;2022-08-19T05:42:07;22.38;;;18.35;;
22567;SDS011;11450;50.818;4.382;2022-08-19T05:44:36;23.35;;;17.98;;
22567;SDS011;11450;50.818;4.382;2022-08-19T05:47:05;20.88;;;17.48;;
22567;SDS011;11450;50.818;4.382;2022-08-19T05:49:33;24.40;;;17.40;;
22567;SDS011;11450;50.818;4.382;2022-08-19T05:52:06;22.75;;;16.92;;
22567;SDS011;11450;50.818;4.382;2022-08-19T05:54:36;18.15;;;15.07;;
22567;SDS011;11450;50.818;4.382;2022-08-19T05:57:05;18.88;;;14.80;;
22567;SDS011;11450;50.818;4.382;2022-08-19T05:59:31;17.95;;;14.00;;
22567;SDS011;11450;50.818;4.382;2022-08-19T06:01:57;15.85;;;14.00;;
22567;SDS011;11450;50.818;4.382;2022-08-19T06:04:25;16.58;;;12.77;;
22567;SDS011;11450;50.818;4.382;2022-08-19T06:06:51;16.10;;;12.25;;
22567;SDS011;11450;50.818;4.382;2022-08-19T06:09:19;15.90;;;12.75;;
22567;SDS011;11450;50.818;4.382;2022-08-19T06:11:46;14.77;;;10.90;;
22567;SDS011;11450;50.818;4.382;2022-08-19T06:14:18;18.45;;;10.80;;
22567;SDS011;11450;50.818;4.382;2022-08-19T06:16:46;18.45;;;11.60;;
22567;SDS011;11450;50.818;4.382;2022-08-19T06:19:15;16.13;;;10.88;;
22567;SDS011;11450;50.818;4.382;2022-08-19T06:21:44;15.50;;;10.43;;
22567;SDS011;11450;50.818;4.382;2022-08-19T06:24:13;15.02;;;10.18;;
22567;SDS011;11450;50.818;4.382;2022-08-19T06:26:41;16.77;;;10.55;;
22567;SDS011;11450;50.818;4.382;2022-08-19T06:29:09;15.13;;;10.05;;
22567;SDS011;11450;50.818;4.382;2022-08-19T06:31:36;13.70;;;9.98;;
22567;SDS011;11450;50.818;4.382;2022-08-19T06:34:06;10.88;;;8.30;;
22567;SDS011;11450;50.818;4.382;2022-08-19T06:36:42;13.27;;;8.68;;
22567;SDS011;11450;50.818;4.382;2022-08-19T06:39:16;13.02;;;7.97;;
22567;SDS011;11450;50.818;4.382;2022-08-19T06:41:46;14.25;;;8.55;;
22567;SDS011;11450;50.818;4.382;2022-08-19T06:44:15;11.02;;;8.38;;
22567;SDS011;11450;50.818;4.382;2022-08-19T06:46:42;14.25;;;7.88;;
22567;SDS011;11450;50.818;4.382;2022-08-19T06:49:08;12.88;;;7.75;;
22567;SDS011;11450;50.818;4.382;2022-08-19T06:51:36;14.60;;;8.02;;
22567;SDS011;11450;50.818;4.382;2022-08-19T06:54:04;10.02;;;6.90;;
22567;SDS011;11450;50.818;4.382;2022-08-19T06:56:30;12.05;;;8.18;;
22567;SDS011;11450;50.818;4.382;2022-08-19T06:59:00;11.63;;;7.75;;
22567;SDS011;11450;50.818;4.382;2022-08-19T07:01:44;12.13;;;7.50;;
22567;SDS011;11450;50.818;4.382;2022-08-19T07:04:12;13.32;;;8.05;;
22567;SDS011;11450;50.818;4.382;2022-08-19T07:06:47;15.70;;;7.57;;
22567;SDS011;11450;50.818;4.382;2022-08-19T07:09:13;13.55;;;8.18;;
22567;SDS011;11450;50.818;4.382;2022-08-19T07:11:47;13.27;;;7.95;;
22567;SDS011;11450;50.818;4.382;2022-08-19T07:14:15;17.10;;;8.10;;
22567;SDS011;11450;50.818;4.382;2022-08-19T07:16:43;10.68;;;8.05;;
22567;SDS011;11450;50.818;4.382;2022-08-19T07:19:10;13.40;;;8.25;;
22567;SDS011;11450;50.818;4.382;2022-08-19T07:21:37;17.98;;;8.35;;
22567;SDS011;11450;50.818;4.382;2022-08-19T07:24:02;14.20;;;7.72;;
22567;SDS011;11450;50.818;4.382;2022-08-19T07:26:30;17.70;;;9.63;;
22567;SDS011;11450;50.818;4.382;2022-08-19T07:28:57;15.60;;;8.30;;
22567;SDS011;11450;50.818;4.382;2022-08-19T07:31:25;12.85;;;7.57;;
22567;SDS011;11450;50.818;4.382;2022-08-19T07:33:53;14.88;;;7.72;;
22567;SDS011;11450;50.818;4.382;2022-08-19T07:36:23;10.10;;;6.57;;
22567;SDS011;11450;50.818;4.382;2022-08-19T07:38:53;11.82;;;7.97;;
22567;SDS011;11450;50.818;4.382;2022-08-19T07:41:23;10.80;;;7.28;;
22567;SDS011;11450;50.818;4.382;2022-08-19T07:43:50;11.18;;;7.88;;
22567;SDS011;11450;50.818;4.382;2022-08-19T07:46:18;11.80;;;7.25;;
22567;SDS011;11450;50.818;4.382;2022-08-19T07:48:45;9.57;;;6.82;;
22567;SDS011;11450;50.818;4.382;2022-08-19T07:51:13;9.27;;;7.18;;
22567;SDS011;11450;50.818;4.382;2022-08-19T07:53:44;9.40;;;6.85;;
22567;SDS011;11450;50.818;4.382;2022-08-19T07:56:13;9.65;;;6.55;;
22567;SDS011;11450;50.818;4.382;2022-08-19T07:58:41;10.27;;;7.03;;
22567;SDS011;11450;50.818;4.382;2022-08-19T08:01:13;10.88;;;6.35;;
22567;SDS011;11450;50.818;4.382;2022-08-19T08:03:47;10.35;;;6.95;;
22567;SDS011;11450;50.818;4.382;2022-08-19T08:06:33;16.25;;;8.05;;
22567;SDS011;11450;50.818;4.382;2022-08-19T08:09:19;11.98;;;6.68;;
22567;SDS011;11450;50.818;4.382;2022-08-19T08:11:52;8.65;;;6.25;;
22567;SDS011;11450;50.818;4.382;2022-08-19T08:16:56;7.53;;;6.47;;
22567;SDS011;11450;50.818;4.382;2022-08-19T08:19:22;9.00;;;5.93;;
22567;SDS011;11450;50.818;4.382;2022-08-19T08:21:50;8.85;;;6.45;;
22567;SDS011;11450;50.818;4.382;2022-08-19T08:24:17;10.60;;;6.40;;
22567;SDS011;11450;50.818;4.382;2022-08-19T08:26:43;7.78;;;5.43;;
22567;SDS011;11450;50.818;4.382;2022-08-19T08:29:12;7.88;;;5.03;;
22567;SDS011;11450;50.818;4.382;2022-08-19T08:31:41;6.68;;;4.90;;
22567;SDS011;11450;50.818;4.382;2022-08-19T08:34:08;10.65;;;5.40;;
22567;SDS011;11450;50.818;4.382;2022-08-19T08:36:36;7.72;;;5.85;;
22567;SDS011;11450;50.818;4.382;2022-08-19T08:39:10;8.73;;;5.18;;
22567;SDS011;11450;50.818;4.382;2022-08-19T08:44:20;8.10;;;4.18;;
22567;SDS011;11450;50.818;4.382;2022-08-19T08:47:19;5.40;;;4.25;;
22567;SDS011;11450;50.818;4.382;2022-08-19T08:49:50;6.93;;;4.32;;
22567;SDS011;11450;50.818;4.382;2022-08-19T08:55:17;6.68;;;4.20;;
22567;SDS011;11450;50.818;4.382;2022-08-19T09:00:15;6.30;;;4.28;;
22567;SDS011;11450;50.818;4.382;2022-08-19T09:02:51;8.70;;;4.45;;
22567;SDS011;11450;50.818;4.382;2022-08-19T09:05:20;8.38;;;4.90;;
22567;SDS011;11450;50.818;4.382;2022-08-19T09:10:32;6.47;;;3.65;;
22567;SDS011;11450;50.818;4.382;2022-08-19T09:15:43;7.97;;;4.00;;
22567;SDS011;11450;50.818;4.382;2022-08-19T09:18:13;6.57;;;4.07;;
22567;SDS011;11450;50.818;4.382;2022-08-19T09:20:41;5.75;;;4.00;;
22567;SDS011;11450;50.818;4.382;2022-08-19T09:23:07;6.28;;;3.85;;
22567;SDS011;11450;50.818;4.382;2022-08-19T09:25:33;6.30;;;4.05;;
22567;SDS011;11450;50.818;4.382;2022-08-19T09:27:59;10.38;;;4.63;;
22567;SDS011;11450;50.818;4.382;2022-08-19T09:30:29;5.05;;;4.03;;
22567;SDS011;11450;50.818;4.382;2022-08-19T09:32:56;5.97;;;4.45;;
22567;SDS011;11450;50.818;4.382;2022-08-19T09:35:22;7.32;;;4.65;;
22567;SDS011;11450;50.818;4.382;2022-08-19T09:37:53;7.72;;;4.65;;
22567;SDS011;11450;50.818;4.382;2022-08-19T09:40:22;5.70;;;4.80;;
22567;SDS011;11450;50.818;4.382;2022-08-19T09:42:48;8.52;;;4.82;;
22567;SDS011;11450;50.818;4.382;2022-08-19T09:45:14;7.00;;;3.80;;
22567;SDS011;11450;50.818;4.382;2022-08-19T09:47:42;6.53;;;5.30;;
22567;SDS011;11450;50.818;4.382;2022-08-19T09:55:51;5.50;;;4.68;;
22567;SDS011;11450;50.818;4.382;2022-08-19T09:58:19;7.03;;;4.65;;
22567;SDS011;11450;50.818;4.382;2022-08-19T10:00:45;6.25;;;4.25;;
22567;SDS011;11450;50.818;4.382;2022-08-19T10:03:11;8.57;;;5.35;;
22567;SDS011;11450;50.818;4.382;2022-08-19T10:05:37;6.40;;;4.00;;
22567;SDS011;11450;50.818;4.382;2022-08-19T10:08:19;4.53;;;4.13;;
22567;SDS011;11450;50.818;4.382;2022-08-19T10:10:48;6.20;;;4.88;;
22567;SDS011;11450;50.818;4.382;2022-08-19T10:13:16;7.20;;;4.25;;
22567;SDS011;11450;50.818;4.382;2022-08-19T10:15:46;4.72;;;4.22;;
22567;SDS011;11450;50.818;4.382;2022-08-19T10:18:15;6.68;;;4.20;;
22567;SDS011;11450;50.818;4.382;2022-08-19T10:20:42;6.85;;;5.53;;
22567;SDS011;11450;50.818;4.382;2022-08-19T10:26:01;7.40;;;5.30;;
22567;SDS011;11450;50.818;4.382;2022-08-19T10:28:30;4.85;;;3.97;;
22567;SDS011;11450;50.818;4.382;2022-08-19T10:30:57;6.97;;;4.72;;
22567;SDS011;11450;50.818;4.382;2022-08-19T10:33:24;5.45;;;4.93;;
22567;SDS011;11450;50.818;4.382;2022-08-19T10:35:58;6.28;;;5.15;;
22567;SDS011;11450;50.818;4.382;2022-08-19T10:41:40;7.43;;;6.38;;
22567;SDS011;11450;50.818;4.382;2022-08-19T10:44:09;8.35;;;6.20;;
22567;SDS011;11450;50.818;4.382;2022-08-19T10:46:37;13.00;;;6.78;;
22567;SDS011;11450;50.818;4.382;2022-08-19T10:49:07;7.70;;;6.40;;
22567;SDS011;11450;50.818;4.382;2022-08-19T10:51:34;7.30;;;6.60;;
22567;SDS011;11450;50.818;4.382;2022-08-19T10:54:19;9.05;;;6.80;;
22567;SDS011;11450;50.818;4.382;2022-08-19T10:56:45;9.18;;;7.40;;
22567;SDS011;11450;50.818;4.382;2022-08-19T10:59:21;8.73;;;5.55;;
22567;SDS011;11450;50.818;4.382;2022-08-19T11:01:49;7.32;;;6.25;;
22567;SDS011;11450;50.818;4.382;2022-08-19T11:04:16;13.57;;;7.88;;
22567;SDS011;11450;50.818;4.382;2022-08-19T11:06:46;6.55;;;5.88;;
22567;SDS011;11450;50.818;4.382;2022-08-19T11:09:17;6.75;;;6.00;;
22567;SDS011;11450;50.818;4.382;2022-08-19T11:11:45;7.15;;;6.50;;
22567;SDS011;11450;50.818;4.382;2022-08-19T11:14:13;8.82;;;6.78;;
22567;SDS011;11450;50.818;4.382;2022-08-19T11:16:41;8.10;;;7.30;;
22567;SDS011;11450;50.818;4.382;2022-08-19T11:19:08;10.30;;;8.45;;
22567;SDS011;11450;50.818;4.382;2022-08-19T11:21:37;8.07;;;7.28;;
22567;SDS011;11450;50.818;4.382;2022-08-19T11:24:10;10.18;;;6.50;;
22567;SDS011;11450;50.818;4.382;2022-08-19T11:26:39;8.32;;;7.07;;
22567;SDS011;11450;50.818;4.382;2022-08-19T11:29:07;8.95;;;7.60;;
22567;SDS011;11450;50.818;4.382;2022-08-19T11:31:39;10.45;;;7.28;;
22567;SDS011;11450;50.818;4.382;2022-08-19T11:34:07;9.77;;;7.63;;
22567;SDS011;11450;50.818;4.382;2022-08-19T11:36:36;9.95;;;7.55;;
22567;SDS011;11450;50.818;4.382;2022-08-19T11:39:04;9.75;;;7.57;;
22567;SDS011;11450;50.818;4.382;2022-08-19T11:41:32;9.88;;;8.25;;
22567;SDS011;11450;50.818;4.382;2022-08-19T11:43:58;8.27;;;7.47;;
22567;SDS011;11450;50.818;4.382;2022-08-19T11:46:24;8.77;;;7.13;;
22567;SDS011;11450;50.818;4.382;2022-08-19T11:48:52;7.82;;;7.03;;
22567;SDS011;11450;50.818;4.382;2022-08-19T11:51:20;8.30;;;6.50;;
22567;SDS011;11450;50.818;4.382;2022-08-19T11:53:48;7.55;;;6.43;;
22567;SDS011;11450;50.818;4.382;2022-08-19T11:56:15;6.43;;;5.82;;
22567;SDS011;11450;50.818;4.382;2022-08-19T11:58:41;6.82;;;6.13;;
22567;SDS011;11450;50.818;4.382;2022-08-19T12:01:10;8.02;;;6.45;;
22567;SDS011;11450;50.818;4.382;2022-08-19T12:03:38;12.98;;;6.32;;
22567;SDS011;11450;50.818;4.382;2022-08-19T12:06:08;9.48;;;6.10;;
22567;SDS011;11450;50.818;4.382;2022-08-19T12:08:38;5.40;;;4.72;;
22567;SDS011;11450;50.818;4.382;2022-08-19T12:11:07;5.25;;;4.25;;
22567;SDS011;11450;50.818;4.382;2022-08-19T12:13:34;4.75;;;4.05;;
22567;SDS011;11450;50.818;4.382;2022-08-19T12:16:01;6.20;;;4.40;;
22567;SDS011;11450;50.818;4.382;2022-08-19T12:18:37;5.40;;;4.55;;
22567;SDS011;11450;50.818;4.382;2022-08-19T12:21:08;3.80;;;3.42;;
22567;SDS011;11450;50.818;4.382;2022-08-19T12:23:35;4.53;;;4.13;;
22567;SDS011;11450;50.818;4.382;2022-08-19T12:26:02;4.32;;;3.83;;
22567;SDS011;11450;50.818;4.382;2022-08-19T12:28:28;4.95;;;3.83;;
22567;SDS011;11450;50.818;4.382;2022-08-19T12:30:55;4.43;;;3.25;;
22567;SDS011;11450;50.818;4.382;2022-08-19T12:33:21;6.15;;;3.95;;
22567;SDS011;11450;50.818;4.382;2022-08-19T12:35:50;3.63;;;3.28;;
22567;SDS011;11450;50.818;4.382;2022-08-19T12:38:16;5.75;;;3.30;;
22567;SDS011;11450;50.818;4.382;2022-08-19T12:40:45;6.45;;;3.40;;
22567;SDS011;11450;50.818;4.382;2022-08-19T12:43:12;5.50;;;2.80;;
22567;SDS011;11450;50.818;4.382;2022-08-19T12:45:38;9.00;;;2.45;;
22567;SDS011;11450;50.818;4.382;2022-08-19T12:48:04;6.68;;;2.58;;
22567;SDS011;11450;50.818;4.382;2022-08-19T12:50:30;4.07;;;2.08;;
22567;SDS011;11450;50.818;4.382;2022-08-19T12:52:56;3.70;;;2.42;;
22567;SDS011;11450;50.818;4.382;2022-08-19T12:58:44;4.38;;;2.65;;
22567;SDS011;11450;50.818;4.382;2022-08-19T13:01:11;4.10;;;1.95;;
22567;SDS011;11450;50.818;4.382;2022-08-19T13:03:39;3.17;;;2.08;;
22567;SDS011;11450;50.818;4.382;2022-08-19T13:06:05;3.28;;;2.17;;
22567;SDS011;11450;50.818;4.382;2022-08-19T13:08:31;2.47;;;2.10;;
22567;SDS011;11450;50.818;4.382;2022-08-19T13:10:57;3.05;;;2.03;;
22567;SDS011;11450;50.818;4.382;2022-08-19T13:13:31;3.45;;;1.83;;
22567;SDS011;11450;50.818;4.382;2022-08-19T13:15:59;2.65;;;2.10;;
22567;SDS011;11450;50.818;4.382;2022-08-19T13:18:29;1.60;;;1.50;;
22567;SDS011;11450;50.818;4.382;2022-08-19T13:20:56;3.78;;;1.70;;
22567;SDS011;11450;50.818;4.382;2022-08-19T13:23:22;2.78;;;1.70;;
22567;SDS011;11450;50.818;4.382;2022-08-19T13:26:00;2.78;;;1.48;;
22567;SDS011;11450;50.818;4.382;2022-08-19T13:28:28;1.95;;;1.30;;
22567;SDS011;11450;50.818;4.382;2022-08-19T13:31:15;5.03;;;1.27;;
22567;SDS011;11450;50.818;4.382;2022-08-19T13:34:00;3.05;;;1.40;;
22567;SDS011;11450;50.818;4.382;2022-08-19T13:36:26;3.15;;;1.50;;
22567;SDS011;11450;50.818;4.382;2022-08-19T13:38:52;1.90;;;1.40;;
22567;SDS011;11450;50.818;4.382;2022-08-19T13:41:17;6.03;;;2.00;;
22567;SDS011;11450;50.818;4.382;2022-08-19T13:43:44;1.40;;;1.25;;
22567;SDS011;11450;50.818;4.382;2022-08-19T13:46:10;3.38;;;1.40;;
22567;SDS011;11450;50.818;4.382;2022-08-19T13:48:38;4.97;;;1.67;;
22567;SDS011;11450;50.818;4.382;2022-08-19T13:51:06;3.63;;;1.33;;
22567;SDS011;11450;50.818;4.382;2022-08-19T13:53:35;3.05;;;1.65;;
22567;SDS011;11450;50.818;4.382;2022-08-19T13:56:05;3.72;;;1.27;;
22567;SDS011;11450;50.818;4.382;2022-08-19T13:58:32;4.95;;;1.20;;
22567;SDS011;11450;50.818;4.382;2022-08-19T14:00:58;1.38;;;1.27;;
22567;SDS011;11450;50.818;4.382;2022-08-19T14:03:24;2.45;;;1.20;;
22567;SDS011;11450;50.818;4.382;2022-08-19T14:05:50;2.13;;;1.38;;
22567;SDS011;11450;50.818;4.382;2022-08-19T14:08:16;2.53;;;1.33;;
22567;SDS011;11450;50.818;4.382;2022-08-19T14:10:46;2.78;;;1.20;;
22567;SDS011;11450;50.818;4.382;2022-08-19T14:13:14;1.98;;;1.00;;
22567;SDS011;11450;50.818;4.382;2022-08-19T14:15:42;3.17;;;1.20;;
22567;SDS011;11450;50.818;4.382;2022-08-19T14:18:08;3.05;;;1.55;;
22567;SDS011;11450;50.818;4.382;2022-08-19T14:20:34;5.78;;;1.77;;
22567;SDS011;11450;50.818;4.382;2022-08-19T14:23:00;2.80;;;1.92;;
22567;SDS011;11450;50.818;4.382;2022-08-19T14:25:28;1.58;;;1.30;;
22567;SDS011;11450;50.818;4.382;2022-08-19T14:27:56;2.05;;;1.30;;
22567;SDS011;11450;50.818;4.382;2022-08-19T14:30:24;2.40;;;1.30;;
22567;SDS011;11450;50.818;4.382;2022-08-19T14:32:53;6.68;;;1.52;;
22567;SDS011;11450;50.818;4.382;2022-08-19T14:35:20;1.88;;;1.50;;
22567;SDS011;11450;50.818;4.382;2022-08-19T14:37:49;2.45;;;1.30;;
22567;SDS011;11450;50.818;4.382;2022-08-19T14:40:21;1.70;;;1.17;;
22567;SDS011;11450;50.818;4.382;2022-08-19T14:43:01;1.80;;;1.05;;
22567;SDS011;11450;50.818;4.382;2022-08-19T14:45:32;1.27;;;1.00;;
22567;SDS011;11450;50.818;4.382;2022-08-19T14:48:00;1.80;;;0.80;;
22567;SDS011;11450;50.818;4.382;2022-08-19T14:50:26;2.15;;;1.35;;
22567;SDS011;11450;50.818;4.382;2022-08-19T14:52:57;3.63;;;1.63;;
22567;SDS011;11450;50.818;4.382;2022-08-19T14:55:24;1.40;;;1.30;;
22567;SDS011;11450;50.818;4.382;2022-08-19T14:57:50;2.63;;;1.40;;
22567;SDS011;11450;50.818;4.382;2022-08-19T15:00:16;1.55;;;1.08;;
22567;SDS011;11450;50.818;4.382;2022-08-19T15:02:42;2.35;;;1.30;;
22567;SDS011;11450;50.818;4.382;2022-08-19T15:05:10;3.75;;;1.17;;
22567;SDS011;11450;50.818;4.382;2022-08-19T15:07:36;2.40;;;1.08;;
22567;SDS011;11450;50.818;4.382;2022-08-19T15:10:03;1.65;;;0.80;;
22567;SDS011;11450;50.818;4.382;2022-08-19T15:12:31;1.63;;;0.93;;
22567;SDS011;11450;50.818;4.382;2022-08-19T15:14:58;3.00;;;1.10;;
22567;SDS011;11450;50.818;4.382;2022-08-19T15:17:24;1.50;;;1.00;;
22567;SDS011;11450;50.818;4.382;2022-08-19T15:19:50;2.55;;;1.30;;
22567;SDS011;11450;50.818;4.382;2022-08-19T15:22:16;4.05;;;1.45;;
22567;SDS011;11450;50.818;4.382;2022-08-19T15:24:42;1.77;;;1.02;;
22567;SDS011;11450;50.818;4.382;2022-08-19T15:27:10;2.97;;;1.40;;